Time;durP1;ratioP1;P1;durP2;ratioP2;P2;SDS_P1;SDS_P2;PMS_P1;PMS_P2;Temp;Humidity;BMP_temperature;BMP_pressure;BME280_temperature;BME280_humidity;BME280_pressure;Samples;Min_cycle;Max_cycle;Signal;HPM_P1;HPM_P2
2023/09/19 00:02:01;;;;;;;;;;;;;;;;;;5115534;28;20265;-22
2023/09/19 00:04:29;;;;;;;;;;;;;;;;;;5115255;28;19920;-25
2023/09/19 00:06:54;;;;;;;;;;;;;;;;;;5115565;28;19939;-25
2023/09/19 00:09:20;;;;;;;;;;;;;;;;;;5115498;28;19955;-26
2023/09/19 00:11:49;;;;;;;;;;;;;;;;;;5115506;28;20278;-25
2023/09/19 00:14:15;;;;;;;;;;;;;;;;;;5115241;28;19973;-25
2023/09/19 00:16:41;;;;;;;;;;;;;;;;;;5097195;28;20297;-26
2023/09/19 00:19:08;;;;;;;;;;;;;;;;;;5115350;28;19912;-28
2023/09/19 00:21:33;;;;;;;;;;;;;;;;;;5114946;28;19908;-25
2023/09/19 00:23:59;;;;;;;;;;;;;;;;;;5115032;28;20056;-28
2023/09/19 00:26:25;;;;;;;;;;;;;;;;;;5115289;28;19916;-27
2023/09/19 00:28:51;;;;;;;;;;;;;;;;;;5115059;28;19921;-22
2023/09/19 00:31:18;;;;;;;;;;;;;;;;;;5114994;28;19919;-25
2023/09/19 00:33:43;;;;;;;;;;;;;;;;;;5115219;28;19912;-25
2023/09/19 00:36:09;;;;;;;;;;;;;;;;;;5115309;28;20231;-24
2023/09/19 00:38:36;;;;;;;;;;;;;;;;;;5114967;28;19921;-26
2023/09/19 00:41:02;;;;;;;;;;;;;;;;;;5115195;28;20239;-24
2023/09/19 00:43:29;;;;;;;;;;;;;;;;;;5114907;28;20394;-24
2023/09/19 00:45:55;;;;;;;;;;;;;;;;;;5114939;28;19916;-25
2023/09/19 00:48:21;;;;;;;;;;;;;;;;;;5114988;28;19908;-22
2023/09/19 00:50:47;;;;;;;;;;;;;;;;;;5114843;28;20323;-25
2023/09/19 00:53:13;;;;;;;;;;;;;;;;;;5114833;28;19943;-25
2023/09/19 00:55:41;;;;;;;;;;;;;;;;;;5115053;28;20250;-25
2023/09/19 00:58:07;;;;;;;;;;;;;;;;;;5115049;28;19961;-29
2023/09/19 01:00:33;;;;;;;;;;;;;;;;;;5114790;28;19965;-28
2023/09/19 01:03:00;;;;;;;;;;;;;;;;;;5114490;28;20003;-32
2023/09/19 01:05:26;;;;;;;;;;;;;;;;;;5114687;28;19912;-26
2023/09/19 01:07:53;;;;;;;;;;;;;;;;;;5114670;28;19907;-29
2023/09/19 01:10:22;;;;;;;;;;;;;;;;;;5114657;28;19912;-23
2023/09/19 01:12:47;;;;;;;;;;;;;;;;;;5114745;28;19912;-25
2023/09/19 01:15:14;;;;;;;;;;;;;;;;;;5114859;28;19957;-26
2023/09/19 01:17:40;;;;;;;;;;;;;;;;;;5114613;28;19908;-26
2023/09/19 01:20:07;;;;;;;;;;;;;;;;;;5096610;28;20174;-26
2023/09/19 01:22:34;;;;;;;;;;;;;;;;;;5114498;28;20010;-22
2023/09/19 01:24:59;;;;;;;;;;;;;;;;;;5114524;28;20363;-26
2023/09/19 01:27:26;;;;;;;;;;;;;;;;;;5114790;28;19939;-25
2023/09/19 01:29:53;;;;;;;;;;;;;;;;;;5114430;28;19912;-25
2023/09/19 01:32:22;;;;;;;;;;;;;;;;;;5115259;28;20338;-29
2023/09/19 01:34:48;;;;;;;;;;;;;;;;;;5118180;28;19908;-27
2023/09/19 01:37:18;;;;;;;;;;;;;;;;;;5118093;28;19935;-22
2023/09/19 01:39:44;;;;;;;;;;;;;;;;;;5118070;28;19985;-23
2023/09/19 01:42:10;;;;;;;;;;;;;;;;;;5117929;28;20407;-25
2023/09/19 01:44:36;;;;;;;;;;;;;;;;;;5117962;28;19908;-29
2023/09/19 01:47:02;;;;;;;;;;;;;;;;;;5117854;28;19969;-24
2023/09/19 01:49:28;;;;;;;;;;;;;;;;;;5118048;28;19948;-30
2023/09/19 01:51:55;;;;;;;;;;;;;;;;;;5117710;28;19951;-25
2023/09/19 01:54:21;;;;;;;;;;;;;;;;;;5117690;28;20302;-29
2023/09/19 01:56:46;;;;;;;;;;;;;;;;;;5117715;28;19919;-25
2023/09/19 01:59:13;;;;;;;;;;;;;;;;;;5118217;28;19964;-25
2023/09/19 02:01:38;;;;;;;;;;;;;;;;;;5117623;28;19908;-26
2023/09/19 02:04:05;;;;;;;;;;;;;;;;;;5117388;28;20365;-22
2023/09/19 02:06:30;;;;;;;;;;;;;;;;;;5117763;28;20319;-24
2023/09/19 02:08:57;;;;;;;;;;;;;;;;;;5117542;28;19941;-27
2023/09/19 02:11:23;;;;;;;;;;;;;;;;;;5117450;28;19926;-22
2023/09/19 02:13:54;;;;;;;;;;;;;;;;;;5117328;28;19912;-27
2023/09/19 02:16:20;;;;;;;;;;;;;;;;;;5117598;28;19908;-22
2023/09/19 02:18:46;;;;;;;;;;;;;;;;;;5117598;28;20178;-27
2023/09/19 02:21:12;;;;;;;;;;;;;;;;;;5117306;28;19908;-20
2023/09/19 02:23:38;;;;;;;;;;;;;;;;;;5117038;28;19914;-25
2023/09/19 02:26:05;;;;;;;;;;;;;;;;;;5117151;28;20017;-29
2023/09/19 02:28:31;;;;;;;;;;;;;;;;;;5117087;28;19908;-22
2023/09/19 02:30:57;;;;;;;;;;;;;;;;;;5117935;28;19989;-26
2023/09/19 02:33:23;;;;;;;;;;;;;;;;;;5116968;28;19907;-32
2023/09/19 02:35:50;;;;;;;;;;;;;;;;;;5116961;28;19908;-24
2023/09/19 02:38:20;;;;;;;;;;;;;;;;;;5116944;28;19919;-28
2023/09/19 02:40:46;;;;;;;;;;;;;;;;;;5116835;28;20022;-21
2023/09/19 02:43:12;;;;;;;;;;;;;;;;;;5116859;28;19908;-25
2023/09/19 02:45:39;;;;;;;;;;;;;;;;;;5115573;28;20026;-24
2023/09/19 02:48:04;;;;;;;;;;;;;;;;;;5116655;28;19907;-24
2023/09/19 02:50:30;;;;;;;;;;;;;;;;;;5116633;28;19919;-28
2023/09/19 02:52:56;;;;;;;;;;;;;;;;;;5116650;28;19919;-22
2023/09/19 02:55:22;;;;;;;;;;;;;;;;;;5116649;28;20274;-22
2023/09/19 02:57:48;;;;;;;;;;;;;;;;;;5116771;28;19916;-26
2023/09/19 03:00:14;;;;;;;;;;;;;;;;;;5116504;28;19954;-25
2023/09/19 03:02:41;;;;;;;;;;;;;;;;;;5116416;28;19922;-25
2023/09/19 03:05:07;;;;;;;;;;;;;;;;;;5116654;28;19919;-26
2023/09/19 03:07:33;;;;;;;;;;;;;;;;;;5116298;28;19914;-24
2023/09/19 03:09:59;;;;;;;;;;;;;;;;;;5116185;28;19912;-25
2023/09/19 03:12:25;;;;;;;;;;;;;;;;;;5116179;28;19995;-22
2023/09/19 03:14:51;;;;;;;;;;;;;;;;;;5116156;28;19908;-25
2023/09/19 03:17:19;;;;;;;;;;;;;;;;;;5116141;28;20003;-24
2023/09/19 03:19:47;;;;;;;;;;;;;;;;;;5116350;28;20012;-29
2023/09/19 03:22:13;;;;;;;;;;;;;;;;;;5116170;28;19908;-26
2023/09/19 03:24:39;;;;;;;;;;;;;;;;;;5116038;28;20356;-20
2023/09/19 03:27:05;;;;;;;;;;;;;;;;;;5115937;28;19995;-23
2023/09/19 03:29:31;;;;;;;;;;;;;;;;;;5115809;28;19961;-27
2023/09/19 03:31:57;;;;;;;;;;;;;;;;;;5115991;28;19922;-25
2023/09/19 03:34:23;;;;;;;;;;;;;;;;;;5115785;28;19958;-28
2023/09/19 03:36:49;;;;;;;;;;;;;;;;;;5115770;28;19908;-27
2023/09/19 03:39:15;;;;;;;;;;;;;;;;;;5116011;28;19908;-21
2023/09/19 03:41:41;;;;;;;;;;;;;;;;;;5115707;28;20099;-24
2023/09/19 03:44:07;;;;;;;;;;;;;;;;;;5115520;28;20355;-29
2023/09/19 03:46:35;;;;;;;;;;;;;;;;;;5115571;28;19908;-24
2023/09/19 03:49:01;;;;;;;;;;;;;;;;;;5097374;28;19919;-25
2023/09/19 03:51:27;;;;;;;;;;;;;;;;;;5115691;28;19916;-24
2023/09/19 03:53:53;;;;;;;;;;;;;;;;;;5115280;28;19973;-28
2023/09/19 03:56:19;;;;;;;;;;;;;;;;;;5115032;28;19919;-26
2023/09/19 03:58:45;;;;;;;;;;;;;;;;;;5115189;28;19950;-25
2023/09/19 04:01:11;;;;;;;;;;;;;;;;;;5115170;28;19912;-29
2023/09/19 04:03:47;;;;;;;;;;;;;;;;;;5114851;28;19924;-30
2023/09/19 04:06:13;;;;;;;;;;;;;;;;;;5115208;28;19908;-23
2023/09/19 04:08:39;;;;;;;;;;;;;;;;;;5097283;28;19956;-25
2023/09/19 04:11:05;;;;;;;;;;;;;;;;;;5115045;28;19947;-28
2023/09/19 04:13:31;;;;;;;;;;;;;;;;;;5115042;28;19943;-23
2023/09/19 04:15:57;;;;;;;;;;;;;;;;;;5115356;28;19918;-24
2023/09/19 04:18:23;;;;;;;;;;;;;;;;;;5115287;28;19994;-27
2023/09/19 04:20:49;;;;;;;;;;;;;;;;;;5114942;28;19907;-26
2023/09/19 04:23:15;;;;;;;;;;;;;;;;;;5114879;28;19915;-28
2023/09/19 04:25:41;;;;;;;;;;;;;;;;;;5115152;28;19998;-26
2023/09/19 04:28:07;;;;;;;;;;;;;;;;;;5114762;28;20011;-25
2023/09/19 04:30:33;;;;;;;;;;;;;;;;;;5114783;28;19911;-24
2023/09/19 04:33:01;;;;;;;;;;;;;;;;;;5114732;28;19964;-26
2023/09/19 04:35:31;;;;;;;;;;;;;;;;;;5115017;28;19908;-26
2023/09/19 04:37:57;;;;;;;;;;;;;;;;;;5114766;28;19919;-28
2023/09/19 04:40:24;;;;;;;;;;;;;;;;;;5114834;28;19915;-23
2023/09/19 04:42:50;;;;;;;;;;;;;;;;;;5114767;28;19961;-29
2023/09/19 04:45:19;;;;;;;;;;;;;;;;;;5114985;28;19915;-26
2023/09/19 04:47:46;;;;;;;;;;;;;;;;;;5114829;28;19907;-29
2023/09/19 04:50:13;;;;;;;;;;;;;;;;;;5114263;28;20235;-24
2023/09/19 04:52:39;;;;;;;;;;;;;;;;;;5114422;28;19916;-29
2023/09/19 04:55:06;;;;;;;;;;;;;;;;;;5114501;28;20254;-27
2023/09/19 04:57:31;;;;;;;;;;;;;;;;;;5114540;28;19908;-23
2023/09/19 04:59:57;;;;;;;;;;;;;;;;;;5114669;28;19967;-29
2023/09/19 05:02:23;;;;;;;;;;;;;;;;;;5114088;28;20385;-24
2023/09/19 05:04:49;;;;;;;;;;;;;;;;;;5114668;28;20346;-21
2023/09/19 05:07:17;;;;;;;;;;;;;;;;;;5114682;28;19934;-26
2023/09/19 05:09:42;;;;;;;;;;;;;;;;;;5118350;28;19916;-26
2023/09/19 05:12:10;;;;;;;;;;;;;;;;;;5118214;28;20013;-25
2023/09/19 05:14:36;;;;;;;;;;;;;;;;;;5118379;28;20220;-30
2023/09/19 05:17:04;;;;;;;;;;;;;;;;;;5100259;28;19994;-27
2023/09/19 05:19:29;;;;;;;;;;;;;;;;;;5118469;28;19995;-28
2023/09/19 05:21:55;;;;;;;;;;;;;;;;;;5118266;28;20372;-25
2023/09/19 05:24:23;;;;;;;;;;;;;;;;;;5118393;28;19908;-30
2023/09/19 05:26:49;;;;;;;;;;;;;;;;;;5118189;28;20239;-29
2023/09/19 05:29:15;;;;;;;;;;;;;;;;;;5118204;28;19915;-30
2023/09/19 05:31:42;;;;;;;;;;;;;;;;;;5117772;28;19957;-29
2023/09/19 05:34:09;;;;;;;;;;;;;;;;;;5117931;28;19951;-26
2023/09/19 05:36:35;;;;;;;;;;;;;;;;;;5118295;28;19934;-28
2023/09/19 05:39:01;;;;;;;;;;;;;;;;;;5118204;28;19907;-31
2023/09/19 05:41:28;;;;;;;;;;;;;;;;;;5118388;28;20276;-25
2023/09/19 05:43:54;;;;;;;;;;;;;;;;;;5117853;28;19915;-29
2023/09/19 05:46:20;;;;;;;;;;;;;;;;;;5099700;28;19934;-26
2023/09/19 05:48:49;;;;;;;;;;;;;;;;;;5099611;28;20375;-27
2023/09/19 05:51:17;;;;;;;;;;;;;;;;;;5117828;28;19922;-25
2023/09/19 05:53:43;;;;;;;;;;;;;;;;;;5117360;28;19912;-24
2023/09/19 05:56:11;;;;;;;;;;;;;;;;;;5117500;28;20006;-25
2023/09/19 05:58:37;;;;;;;;;;;;;;;;;;5117820;28;19911;-24
2023/09/19 06:01:03;;;;;;;;;;;;;;;;;;5117489;28;19914;-23
2023/09/19 06:03:31;;;;;;;;;;;;;;;;;;5117180;28;20001;-23
2023/09/19 06:05:57;;;;;;;;;;;;;;;;;;5118425;28;19912;-24
2023/09/19 06:08:23;;;;;;;;;;;;;;;;;;5117630;28;20421;-24
2023/09/19 06:10:52;;;;;;;;;;;;;;;;;;5117326;28;19965;-28
2023/09/19 06:13:18;;;;;;;;;;;;;;;;;;5116662;28;19961;-24
2023/09/19 06:15:46;;;;;;;;;;;;;;;;;;5116614;28;19908;-25
2023/09/19 06:18:17;;;;;;;;;;;;;;;;;;5116293;28;19918;-24
2023/09/19 06:20:44;;;;;;;;;;;;;;;;;;5116309;28;19926;-29
2023/09/19 06:23:10;;;;;;;;;;;;;;;;;;5115902;28;19919;-27
2023/09/19 06:25:36;;;;;;;;;;;;;;;;;;5116069;28;19915;-22
2023/09/19 06:28:05;;;;;;;;;;;;;;;;;;5116089;28;19911;-24
2023/09/19 06:30:32;;;;;;;;;;;;;;;;;;5116289;28;19912;-24
2023/09/19 06:32:58;;;;;;;;;;;;;;;;;;5116006;28;19995;-29
2023/09/19 06:35:26;;;;;;;;;;;;;;;;;;5116682;28;20021;-23
2023/09/19 06:37:52;;;;;;;;;;;;;;;;;;5098142;28;19908;-23
2023/09/19 06:40:19;;;;;;;;;;;;;;;;;;5116519;28;19918;-27
2023/09/19 06:42:45;;;;;;;;;;;;;;;;;;5116574;28;20253;-19
2023/09/19 06:45:13;;;;;;;;;;;;;;;;;;5116704;28;19927;-24
2023/09/19 06:47:39;;;;;;;;;;;;;;;;;;5116409;28;19908;-27
2023/09/19 06:50:06;;;;;;;;;;;;;;;;;;5116746;28;20349;-24
2023/09/19 06:52:32;;;;;;;;;;;;;;;;;;5116298;28;20351;-22
2023/09/19 06:54:58;;;;;;;;;;;;;;;;;;5116252;28;19914;-24
2023/09/19 06:57:24;;;;;;;;;;;;;;;;;;5117009;28;19908;-26
2023/09/19 06:59:50;;;;;;;;;;;;;;;;;;5116178;28;19915;-25
2023/09/19 07:02:16;;;;;;;;;;;;;;;;;;5116072;28;19969;-22
2023/09/19 07:04:43;;;;;;;;;;;;;;;;;;5116032;28;19939;-26
2023/09/19 07:07:10;;;;;;;;;;;;;;;;;;5116358;28;19919;-27
2023/09/19 07:09:36;;;;;;;;;;;;;;;;;;5115983;28;19915;-26
2023/09/19 07:12:02;;;;;;;;;;;;;;;;;;5115952;28;20320;-25
2023/09/19 07:14:30;;;;;;;;;;;;;;;;;;5116246;28;19961;-26
2023/09/19 07:16:56;;;;;;;;;;;;;;;;;;5115989;28;20309;-27
2023/09/19 07:19:22;;;;;;;;;;;;;;;;;;5097932;28;20007;-26
2023/09/19 07:21:50;;;;;;;;;;;;;;;;;;5116143;28;19915;-28
2023/09/19 07:24:16;;;;;;;;;;;;;;;;;;5115907;28;19972;-22
2023/09/19 07:26:42;;;;;;;;;;;;;;;;;;5116279;28;19964;-22
2023/09/19 07:29:08;;;;;;;;;;;;;;;;;;5115883;28;19915;-23
2023/09/19 07:31:34;;;;;;;;;;;;;;;;;;5115035;28;20399;-24
2023/09/19 07:34:00;;;;;;;;;;;;;;;;;;5115699;28;19908;-25
2023/09/19 07:36:29;;;;;;;;;;;;;;;;;;5115749;28;19995;-26
2023/09/19 07:38:57;;;;;;;;;;;;;;;;;;5097519;28;19919;-27
2023/09/19 07:41:23;;;;;;;;;;;;;;;;;;5115488;28;19911;-29
2023/09/19 07:43:49;;;;;;;;;;;;;;;;;;5115406;28;20267;-25
2023/09/19 07:46:15;;;;;;;;;;;;;;;;;;5115155;28;19908;-22
2023/09/19 07:48:44;;;;;;;;;;;;;;;;;;5096973;28;19908;-21
2023/09/19 07:51:10;;;;;;;;;;;;;;;;;;5115114;28;19916;-26
2023/09/19 07:53:37;;;;;;;;;;;;;;;;;;5114965;28;20384;-28
2023/09/19 07:56:03;;;;;;;;;;;;;;;;;;5096770;28;20036;-26
2023/09/19 07:58:29;;;;;;;;;;;;;;;;;;5115052;28;19943;-26
2023/09/19 08:00:55;;;;;;;;;;;;;;;;;;5115330;28;19951;-21
2023/09/19 08:03:21;;;;;;;;;;;;;;;;;;5114641;28;19931;-26
2023/09/19 08:05:48;;;;;;;;;;;;;;;;;;5097052;28;19962;-26
2023/09/19 08:08:14;;;;;;;;;;;;;;;;;;5115294;28;20047;-28
2023/09/19 08:10:42;;;;;;;;;;;;;;;;;;5114920;28;19922;-22
2023/09/19 08:13:14;;;;;;;;;;;;;;;;;;5114798;28;19912;-23
2023/09/19 08:15:40;;;;;;;;;;;;;;;;;;5114914;28;19976;-26
2023/09/19 08:18:07;;;;;;;;;;;;;;;;;;5114669;28;19908;-24
2023/09/19 08:20:34;;;;;;;;;;;;;;;;;;5114528;28;19932;-27
2023/09/19 08:23:00;;;;;;;;;;;;;;;;;;5114743;28;20000;-22
2023/09/19 08:25:26;;;;;;;;;;;;;;;;;;5114801;28;19907;-21
2023/09/19 08:27:52;;;;;;;;;;;;;;;;;;5114648;28;19908;-25
2023/09/19 08:30:18;;;;;;;;;;;;;;;;;;5114823;28;19912;-27
2023/09/19 08:32:46;;;;;;;;;;;;;;;;;;5114714;28;19919;-23
2023/09/19 08:35:12;;;;;;;;;;;;;;;;;;5114792;28;19914;-23
2023/09/19 08:37:38;;;;;;;;;;;;;;;;;;5114753;28;19908;-24
2023/09/19 08:40:06;;;;;;;;;;;;;;;;;;5114895;28;20399;-24
2023/09/19 08:42:32;;;;;;;;;;;;;;;;;;5116437;28;19947;-24
2023/09/19 08:45:00;;;;;;;;;;;;;;;;;;5118533;28;19907;-25
2023/09/19 08:47:26;;;;;;;;;;;;;;;;;;5118348;28;19908;-23
2023/09/19 08:49:53;;;;;;;;;;;;;;;;;;5118457;28;19919;-27
2023/09/19 08:52:19;;;;;;;;;;;;;;;;;;5100124;28;19960;-26
2023/09/19 08:54:45;;;;;;;;;;;;;;;;;;5118195;28;20007;-26
2023/09/19 08:57:11;;;;;;;;;;;;;;;;;;5118295;28;20278;-26
2023/09/19 08:59:39;;;;;;;;;;;;;;;;;;5118245;28;19912;-25
2023/09/19 09:02:04;;;;;;;;;;;;;;;;;;5118728;28;19908;-23
2023/09/19 09:04:30;;;;;;;;;;;;;;;;;;5117877;28;19919;-24
2023/09/19 09:06:58;;;;;;;;;;;;;;;;;;5117979;28;19916;-23
2023/09/19 09:09:24;;;;;;;;;;;;;;;;;;5118348;28;19944;-23
2023/09/19 09:11:52;;;;;;;;;;;;;;;;;;5117819;28;20028;-26
2023/09/19 09:14:19;;;;;;;;;;;;;;;;;;5117768;28;19907;-26
2023/09/19 09:16:45;;;;;;;;;;;;;;;;;;5117912;28;20041;-23
2023/09/19 09:19:13;;;;;;;;;;;;;;;;;;5117690;28;19908;-26
2023/09/19 09:21:40;;;;;;;;;;;;;;;;;;5117489;28;19946;-29
2023/09/19 09:24:06;;;;;;;;;;;;;;;;;;5117817;28;19961;-30
2023/09/19 09:26:32;;;;;;;;;;;;;;;;;;5117925;28;19908;-28
2023/09/19 09:28:58;;;;;;;;;;;;;;;;;;5117797;28;19972;-27
2023/09/19 09:31:24;;;;;;;;;;;;;;;;;;5117957;28;20334;-22
2023/09/19 09:33:50;;;;;;;;;;;;;;;;;;5117903;28;19907;-26
2023/09/19 09:36:18;;;;;;;;;;;;;;;;;;5118173;28;19974;-26
2023/09/19 09:38:45;;;;;;;;;;;;;;;;;;5117697;28;19908;-28
2023/09/19 09:41:15;;;;;;;;;;;;;;;;;;5118554;28;19908;-29
2023/09/19 09:43:44;;;;;;;;;;;;;;;;;;5117488;28;19999;-27
2023/09/19 09:49:14;;;;;;;;;;;;;;;;;;5117572;28;19990;-26
2023/09/19 09:51:34;;;;;;;;;;;;;;;;;;5117407;28;19938;-25
2023/09/19 09:54:00;;;;;;;;;;;;;;;;;;5099062;28;19907;-24
2023/09/19 09:56:27;;;;;;;;;;;;;;;;;;5117824;28;19995;-25
2023/09/19 09:58:55;;;;;;;;;;;;;;;;;;5117319;28;20028;-22
2023/09/19 10:01:26;;;;;;;;;;;;;;;;;;5117492;28;20346;-23
2023/09/19 10:03:53;;;;;;;;;;;;;;;;;;5117015;28;19999;-28
2023/09/19 10:08:45;;;;;;;;;;;;;;;;;;5117319;28;19908;-26
2023/09/19 10:11:12;;;;;;;;;;;;;;;;;;5117481;28;19951;-26
2023/09/19 10:13:41;;;;;;;;;;;;;;;;;;5116977;28;19907;-23
2023/09/19 10:16:09;;;;;;;;;;;;;;;;;;5117107;28;20346;-27
2023/09/19 10:18:36;;;;;;;;;;;;;;;;;;5117426;28;20289;-30
2023/09/19 10:21:04;;;;;;;;;;;;;;;;;;5116921;28;20018;-28
2023/09/19 10:23:30;;;;;;;;;;;;;;;;;;5117205;28;20308;-29
2023/09/19 10:25:57;;;;;;;;;;;;;;;;;;5116984;28;20242;-28
2023/09/19 10:28:23;;;;;;;;;;;;;;;;;;5116570;28;19908;-26
2023/09/19 10:30:50;;;;;;;;;;;;;;;;;;5116425;28;19912;-25
2023/09/19 10:33:16;;;;;;;;;;;;;;;;;;5116795;28;19907;-27
2023/09/19 10:35:42;;;;;;;;;;;;;;;;;;5116506;28;19953;-29
2023/09/19 10:38:08;;;;;;;;;;;;;;;;;;5116775;28;20411;-23
2023/09/19 10:40:35;;;;;;;;;;;;;;;;;;5116545;28;20313;-24
2023/09/19 10:43:03;;;;;;;;;;;;;;;;;;5116366;28;19922;-23
2023/09/19 10:45:29;;;;;;;;;;;;;;;;;;5098231;28;20003;-25
2023/09/19 10:47:56;;;;;;;;;;;;;;;;;;5116282;28;19939;-25
2023/09/19 10:50:22;;;;;;;;;;;;;;;;;;5098179;28;19912;-23
2023/09/19 10:52:50;;;;;;;;;;;;;;;;;;5116187;28;20379;-28
2023/09/19 10:55:18;;;;;;;;;;;;;;;;;;5115988;28;19934;-21
2023/09/19 10:57:44;;;;;;;;;;;;;;;;;;5115734;28;19908;-25
2023/09/19 11:00:28;;;;;;;;;;;;;;;;;;5115581;28;19912;-25
2023/09/19 11:02:54;;;;;;;;;;;;;;;;;;5115397;28;20346;-24
2023/09/19 11:05:20;;;;;;;;;;;;;;;;;;5114837;28;19998;-30
2023/09/19 11:07:46;;;;;;;;;;;;;;;;;;5115577;28;20311;-22
2023/09/19 11:10:13;;;;;;;;;;;;;;;;;;5115399;28;19911;-28
2023/09/19 11:12:45;;;;;;;;;;;;;;;;;;5115424;28;20357;-26
2023/09/19 11:15:13;;;;;;;;;;;;;;;;;;5115718;28;20234;-29
2023/09/19 11:17:42;;;;;;;;;;;;;;;;;;5115273;28;19908;-27
2023/09/19 11:22:37;;;;;;;;;;;;;;;;;;5115836;28;19922;-24
2023/09/19 11:25:05;;;;;;;;;;;;;;;;;;5115811;28;19908;-25
2023/09/19 11:27:39;;;;;;;;;;;;;;;;;;5092643;27;19913;-23
2023/09/19 11:30:06;;;;;;;;;;;;;;;;;;5092027;28;19912;-25
2023/09/19 11:32:32;;;;;;;;;;;;;;;;;;5091621;28;19909;-22
2023/09/19 11:34:58;;;;;;;;;;;;;;;;;;5091848;28;19931;-23
2023/09/19 11:37:24;;;;;;;;;;;;;;;;;;5091784;28;19908;-30
2023/09/19 11:39:52;;;;;;;;;;;;;;;;;;5090801;28;19916;-28
2023/09/19 11:42:18;;;;;;;;;;;;;;;;;;5091907;28;19974;-29
2023/09/19 11:44:44;;;;;;;;;;;;;;;;;;5091623;28;19908;-23
2023/09/19 11:47:10;;;;;;;;;;;;;;;;;;5091954;28;19927;-24
2023/09/19 11:49:38;;;;;;;;;;;;;;;;;;5091669;28;20347;-21
2023/09/19 11:52:08;;;;;;;;;;;;;;;;;;5091360;28;19919;-25
2023/09/19 11:54:36;;;;;;;;;;;;;;;;;;5091740;28;19908;-24
2023/09/19 11:57:02;;;;;;;;;;;;;;;;;;5091604;28;19981;-25
2023/09/19 11:59:29;;;;;;;;;;;;;;;;;;5091576;28;19919;-27
2023/09/19 12:01:58;;;;;;;;;;;;;;;;;;5090902;28;19908;-27
2023/09/19 12:04:24;;;;;;;;;;;;;;;;;;5091446;28;19908;-28
2023/09/19 12:06:50;;;;;;;;;;;;;;;;;;5091242;28;20401;-26
2023/09/19 12:09:16;;;;;;;;;;;;;;;;;;5091406;28;20235;-27
2023/09/19 12:11:44;;;;;;;;;;;;;;;;;;5091461;28;19931;-25
2023/09/19 12:14:09;;;;;;;;;;;;;;;;;;5090921;28;20098;-22
2023/09/19 12:16:36;;;;;;;;;;;;;;;;;;5091329;28;19955;-26
2023/09/19 12:19:03;;;;;;;;;;;;;;;;;;5091293;28;20003;-24
2023/09/19 12:21:32;;;;;;;;;;;;;;;;;;5090775;28;20365;-22
2023/09/19 12:23:59;;;;;;;;;;;;;;;;;;5089252;28;19908;-26
2023/09/19 12:26:25;;;;;;;;;;;;;;;;;;5100668;28;19920;-27
2023/09/19 12:28:52;;;;;;;;;;;;;;;;;;5109927;28;19919;-26
2023/09/19 12:31:19;;;;;;;;;;;;;;;;;;5110964;28;20347;-26
2023/09/19 12:33:45;;;;;;;;;;;;;;;;;;5110473;28;19966;-30
2023/09/19 12:36:11;;;;;;;;;;;;;;;;;;5110934;28;19959;-24
2023/09/19 12:38:37;;;;;;;;;;;;;;;;;;5099560;28;19915;-25
2023/09/19 12:41:03;;;;;;;;;;;;;;;;;;5097372;28;19993;-28
2023/09/19 12:43:32;;;;;;;;;;;;;;;;;;5097343;28;20235;-25
2023/09/19 12:45:59;;;;;;;;;;;;;;;;;;5096975;28;19965;-25
2023/09/19 12:48:33;;;;;;;;;;;;;;;;;;5097163;28;19973;-27
2023/09/19 12:51:00;;;;;;;;;;;;;;;;;;5097007;28;19912;-28
2023/09/19 12:53:29;;;;;;;;;;;;;;;;;;5096866;28;19908;-27
2023/09/19 12:55:55;;;;;;;;;;;;;;;;;;5097141;28;19908;-31
2023/09/19 12:58:20;;;;;;;;;;;;;;;;;;5095895;28;19935;-26
2023/09/19 13:00:47;;;;;;;;;;;;;;;;;;5096855;28;19940;-24
2023/09/19 13:03:16;;;;;;;;;;;;;;;;;;5096695;28;19961;-26
2023/09/19 13:05:42;;;;;;;;;;;;;;;;;;5096763;28;19944;-26
2023/09/19 13:08:13;;;;;;;;;;;;;;;;;;5096937;28;19913;-28
2023/09/19 13:10:39;;;;;;;;;;;;;;;;;;5097141;28;20358;-31
2023/09/19 13:13:05;;;;;;;;;;;;;;;;;;5096533;28;19940;-22
2023/09/19 13:15:31;;;;;;;;;;;;;;;;;;5096574;28;19909;-23
2023/09/19 13:18:02;;;;;;;;;;;;;;;;;;5096752;28;20308;-26
2023/09/19 13:20:28;;;;;;;;;;;;;;;;;;5096857;28;20393;-24
2023/09/19 13:22:58;;;;;;;;;;;;;;;;;;5095343;28;19909;-24
2023/09/19 13:25:24;;;;;;;;;;;;;;;;;;5096120;28;19915;-26
2023/09/19 13:27:54;;;;;;;;;;;;;;;;;;5096648;28;19912;-30
2023/09/19 13:30:20;;;;;;;;;;;;;;;;;;5096186;28;19916;-26
2023/09/19 13:32:47;;;;;;;;;;;;;;;;;;5095168;28;19976;-28
2023/09/19 13:35:13;;;;;;;;;;;;;;;;;;5096183;28;20090;-27
2023/09/19 13:37:43;;;;;;;;;;;;;;;;;;5095076;28;19916;-26
2023/09/19 13:40:08;;;;;;;;;;;;;;;;;;5095402;28;19982;-22
2023/09/19 13:42:36;;;;;;;;;;;;;;;;;;5096253;28;19918;-25
2023/09/19 13:45:02;;;;;;;;;;;;;;;;;;5095038;28;19908;-25
2023/09/19 13:47:28;;;;;;;;;;;;;;;;;;5096072;28;19912;-29
2023/09/19 13:49:54;;;;;;;;;;;;;;;;;;5094794;28;19962;-22
2023/09/19 13:52:21;;;;;;;;;;;;;;;;;;5096097;28;20308;-26
2023/09/19 13:54:47;;;;;;;;;;;;;;;;;;5096115;28;20253;-26
2023/09/19 13:57:14;;;;;;;;;;;;;;;;;;5095670;28;19908;-26
2023/09/19 13:59:40;;;;;;;;;;;;;;;;;;5095538;28;20250;-27
2023/09/19 14:02:06;;;;;;;;;;;;;;;;;;5095433;28;19915;-29
2023/09/19 14:04:34;;;;;;;;;;;;;;;;;;5095620;28;20353;-22
2023/09/19 14:07:00;;;;;;;;;;;;;;;;;;5095385;28;20266;-25
2023/09/19 14:09:26;;;;;;;;;;;;;;;;;;5095454;28;20339;-26
2023/09/19 14:11:52;;;;;;;;;;;;;;;;;;5095426;28;19947;-20
2023/09/19 14:14:18;;;;;;;;;;;;;;;;;;5095623;28;20331;-26
2023/09/19 14:16:44;;;;;;;;;;;;;;;;;;5095568;28;20250;-26
2023/09/19 14:19:10;;;;;;;;;;;;;;;;;;5095404;28;19961;-23
2023/09/19 14:21:36;;;;;;;;;;;;;;;;;;5095346;28;20006;-27
2023/09/19 14:24:02;;;;;;;;;;;;;;;;;;5095416;28;20342;-26
2023/09/19 14:26:29;;;;;;;;;;;;;;;;;;5094133;28;20015;-27
2023/09/19 14:28:55;;;;;;;;;;;;;;;;;;5095261;28;19956;-26
2023/09/19 14:31:21;;;;;;;;;;;;;;;;;;5095012;28;19912;-29
2023/09/19 14:33:47;;;;;;;;;;;;;;;;;;5095079;28;19916;-23
2023/09/19 14:36:13;;;;;;;;;;;;;;;;;;5094142;28;19908;-29
2023/09/19 14:38:39;;;;;;;;;;;;;;;;;;5095375;28;19908;-24
2023/09/19 14:41:05;;;;;;;;;;;;;;;;;;5095419;28;19915;-24
2023/09/19 14:43:32;;;;;;;;;;;;;;;;;;5094907;28;19981;-27
2023/09/19 14:45:58;;;;;;;;;;;;;;;;;;5094744;28;19916;-25
2023/09/19 14:48:25;;;;;;;;;;;;;;;;;;5094892;28;19987;-30
2023/09/19 14:50:51;;;;;;;;;;;;;;;;;;5093865;28;19916;-26
2023/09/19 14:53:17;;;;;;;;;;;;;;;;;;5094693;28;19908;-24
2023/09/19 14:55:44;;;;;;;;;;;;;;;;;;5094314;28;19908;-26
2023/09/19 14:58:12;;;;;;;;;;;;;;;;;;5094358;28;20224;-24
2023/09/19 15:00:38;;;;;;;;;;;;;;;;;;5093997;28;19908;-25
2023/09/19 15:03:04;;;;;;;;;;;;;;;;;;5094105;28;19919;-22
2023/09/19 15:05:30;;;;;;;;;;;;;;;;;;5094653;28;19912;-24
2023/09/19 15:07:56;;;;;;;;;;;;;;;;;;5094542;28;19915;-23
2023/09/19 15:10:22;;;;;;;;;;;;;;;;;;5094563;28;20339;-26
2023/09/19 15:12:48;;;;;;;;;;;;;;;;;;5094675;28;19919;-26
2023/09/19 15:15:14;;;;;;;;;;;;;;;;;;5094371;28;20320;-26
2023/09/19 15:17:40;;;;;;;;;;;;;;;;;;5092632;28;19940;-30
2023/09/19 15:20:07;;;;;;;;;;;;;;;;;;5093863;28;19914;-24
2023/09/19 15:22:33;;;;;;;;;;;;;;;;;;5092708;28;20455;-25
2023/09/19 15:24:59;;;;;;;;;;;;;;;;;;5094213;28;19908;-29
2023/09/19 15:27:26;;;;;;;;;;;;;;;;;;5093955;28;19976;-28
2023/09/19 15:29:52;;;;;;;;;;;;;;;;;;5094134;28;19908;-31
2023/09/19 15:32:18;;;;;;;;;;;;;;;;;;5093024;28;19959;-27
2023/09/19 15:34:44;;;;;;;;;;;;;;;;;;5093712;28;19964;-23
2023/09/19 15:37:10;;;;;;;;;;;;;;;;;;5092562;28;19919;-28
2023/09/19 15:39:36;;;;;;;;;;;;;;;;;;5093929;28;19909;-25
2023/09/19 15:42:02;;;;;;;;;;;;;;;;;;5093952;28;19908;-26
2023/09/19 15:44:28;;;;;;;;;;;;;;;;;;5094022;28;19915;-27
2023/09/19 15:46:54;;;;;;;;;;;;;;;;;;5094255;28;20097;-27
2023/09/19 15:49:20;;;;;;;;;;;;;;;;;;5094479;28;19933;-25
2023/09/19 15:51:46;;;;;;;;;;;;;;;;;;5094726;28;19994;-28
2023/09/19 15:54:15;;;;;;;;;;;;;;;;;;5094222;28;19909;-26
2023/09/19 15:56:41;;;;;;;;;;;;;;;;;;5094839;28;20323;-23
2023/09/19 15:59:08;;;;;;;;;;;;;;;;;;5094368;28;19969;-23
2023/09/19 16:01:34;;;;;;;;;;;;;;;;;;5094344;28;19981;-25
2023/09/19 16:04:00;;;;;;;;;;;;;;;;;;5094124;28;20323;-26
2023/09/19 16:06:26;;;;;;;;;;;;;;;;;;5094270;28;19912;-28
2023/09/19 16:08:52;;;;;;;;;;;;;;;;;;5094551;28;19908;-24
2023/09/19 16:11:19;;;;;;;;;;;;;;;;;;5094370;28;20346;-23
2023/09/19 16:13:45;;;;;;;;;;;;;;;;;;5096731;28;19976;-28
2023/09/19 16:16:12;;;;;;;;;;;;;;;;;;5097980;28;19959;-28
2023/09/19 16:18:39;;;;;;;;;;;;;;;;;;5098001;28;20000;-27
2023/09/19 16:21:05;;;;;;;;;;;;;;;;;;5097734;28;20353;-21
2023/09/19 16:23:35;;;;;;;;;;;;;;;;;;5097737;28;19912;-23
2023/09/19 16:26:00;;;;;;;;;;;;;;;;;;5097938;28;20231;-23
2023/09/19 16:28:26;;;;;;;;;;;;;;;;;;5097626;28;19934;-30
2023/09/19 16:30:53;;;;;;;;;;;;;;;;;;5097669;28;19976;-26
2023/09/19 16:33:19;;;;;;;;;;;;;;;;;;5097476;28;19923;-22
2023/09/19 16:35:45;;;;;;;;;;;;;;;;;;5097524;28;19919;-25
2023/09/19 16:38:11;;;;;;;;;;;;;;;;;;5097559;28;19908;-25
2023/09/19 16:40:37;;;;;;;;;;;;;;;;;;5097388;28;20003;-25
2023/09/19 16:43:03;;;;;;;;;;;;;;;;;;5096316;28;20035;-25
2023/09/19 16:45:29;;;;;;;;;;;;;;;;;;5097372;28;20316;-27
2023/09/19 16:47:55;;;;;;;;;;;;;;;;;;5097053;28;19908;-23
2023/09/19 16:50:21;;;;;;;;;;;;;;;;;;5097314;28;19912;-21